sensor_id;sensor_type;location;lat;lon;timestamp;P1;durP1;ratioP1;P2;durP2;ratioP2
54307;SDS011;40208;39.778;2.710;2024-01-30T00:00:50;37.30;;;22.30;;
54307;SDS011;40208;39.778;2.710;2024-01-30T00:03:35;36.22;;;20.60;;
54307;SDS011;40208;39.778;2.710;2024-01-30T00:06:20;31.83;;;16.70;;
54307;SDS011;40208;39.778;2.710;2024-01-30T00:09:05;28.15;;;15.63;;
54307;SDS011;40208;39.778;2.710;2024-01-30T00:11:50;28.67;;;16.38;;
54307;SDS011;40208;39.778;2.710;2024-01-30T00:14:35;25.23;;;14.98;;
54307;SDS011;40208;39.778;2.710;2024-01-30T00:17:20;31.75;;;14.65;;
54307;SDS011;40208;39.778;2.710;2024-01-30T00:20:05;21.48;;;12.57;;
54307;SDS011;40208;39.778;2.710;2024-01-30T00:22:51;30.75;;;16.52;;
54307;SDS011;40208;39.778;2.710;2024-01-30T00:25:36;36.38;;;19.20;;
54307;SDS011;40208;39.778;2.710;2024-01-30T00:28:21;35.58;;;19.63;;
54307;SDS011;40208;39.778;2.710;2024-01-30T00:31:06;29.75;;;16.92;;
54307;SDS011;40208;39.778;2.710;2024-01-30T00:33:50;34.45;;;17.25;;
54307;SDS011;40208;39.778;2.710;2024-01-30T00:36:35;34.03;;;18.25;;
54307;SDS011;40208;39.778;2.710;2024-01-30T00:39:21;33.50;;;20.08;;
54307;SDS011;40208;39.778;2.710;2024-01-30T00:42:05;36.22;;;16.75;;
54307;SDS011;40208;39.778;2.710;2024-01-30T00:44:50;32.90;;;15.05;;
54307;SDS011;40208;39.778;2.710;2024-01-30T00:47:35;28.55;;;14.45;;
54307;SDS011;40208;39.778;2.710;2024-01-30T00:50:20;26.05;;;14.98;;
54307;SDS011;40208;39.778;2.710;2024-01-30T00:53:05;27.23;;;14.50;;
54307;SDS011;40208;39.778;2.710;2024-01-30T00:55:50;23.35;;;11.85;;
54307;SDS011;40208;39.778;2.710;2024-01-30T00:58:34;23.20;;;11.88;;
54307;SDS011;40208;39.778;2.710;2024-01-30T01:01:19;19.13;;;10.95;;
54307;SDS011;40208;39.778;2.710;2024-01-30T01:04:04;18.17;;;9.57;;
54307;SDS011;40208;39.778;2.710;2024-01-30T01:06:49;21.85;;;10.85;;
54307;SDS011;40208;39.778;2.710;2024-01-30T01:09:34;18.02;;;10.15;;
54307;SDS011;40208;39.778;2.710;2024-01-30T01:12:19;20.45;;;10.63;;
54307;SDS011;40208;39.778;2.710;2024-01-30T01:15:03;20.00;;;9.43;;
54307;SDS011;40208;39.778;2.710;2024-01-30T01:17:49;21.73;;;9.27;;
54307;SDS011;40208;39.778;2.710;2024-01-30T01:20:34;20.17;;;10.35;;
54307;SDS011;40208;39.778;2.710;2024-01-30T01:23:19;19.23;;;9.52;;
54307;SDS011;40208;39.778;2.710;2024-01-30T01:26:04;17.83;;;8.85;;
54307;SDS011;40208;39.778;2.710;2024-01-30T01:28:50;20.48;;;8.55;;
54307;SDS011;40208;39.778;2.710;2024-01-30T01:31:35;18.27;;;8.23;;
54307;SDS011;40208;39.778;2.710;2024-01-30T01:34:24;21.60;;;9.85;;
54307;SDS011;40208;39.778;2.710;2024-01-30T01:37:09;19.30;;;8.68;;
54307;SDS011;40208;39.778;2.710;2024-01-30T01:39:54;17.90;;;9.52;;
54307;SDS011;40208;39.778;2.710;2024-01-30T01:42:39;13.93;;;6.88;;
54307;SDS011;40208;39.778;2.710;2024-01-30T01:45:24;12.77;;;7.22;;
54307;SDS011;40208;39.778;2.710;2024-01-30T01:48:08;18.00;;;8.88;;
54307;SDS011;40208;39.778;2.710;2024-01-30T01:50:53;19.52;;;8.98;;
54307;SDS011;40208;39.778;2.710;2024-01-30T01:53:38;15.90;;;7.55;;
54307;SDS011;40208;39.778;2.710;2024-01-30T01:56:23;12.00;;;5.97;;
54307;SDS011;40208;39.778;2.710;2024-01-30T01:59:09;13.88;;;5.70;;
54307;SDS011;40208;39.778;2.710;2024-01-30T02:01:54;11.30;;;5.60;;
54307;SDS011;40208;39.778;2.710;2024-01-30T02:04:40;13.93;;;5.95;;
54307;SDS011;40208;39.778;2.710;2024-01-30T02:07:24;14.88;;;6.07;;
54307;SDS011;40208;39.778;2.710;2024-01-30T02:10:09;11.90;;;4.78;;
54307;SDS011;40208;39.778;2.710;2024-01-30T02:12:54;14.23;;;5.95;;
54307;SDS011;40208;39.778;2.710;2024-01-30T02:15:39;13.85;;;5.43;;
54307;SDS011;40208;39.778;2.710;2024-01-30T02:18:24;14.07;;;5.70;;
54307;SDS011;40208;39.778;2.710;2024-01-30T02:21:08;13.65;;;5.95;;
54307;SDS011;40208;39.778;2.710;2024-01-30T02:23:53;17.33;;;6.90;;
54307;SDS011;40208;39.778;2.710;2024-01-30T02:26:40;22.58;;;8.05;;
54307;SDS011;40208;39.778;2.710;2024-01-30T02:29:25;15.98;;;8.43;;
54307;SDS011;40208;39.778;2.710;2024-01-30T02:32:09;20.38;;;10.02;;
54307;SDS011;40208;39.778;2.710;2024-01-30T02:34:54;20.83;;;9.38;;
54307;SDS011;40208;39.778;2.710;2024-01-30T02:37:39;19.13;;;8.18;;
54307;SDS011;40208;39.778;2.710;2024-01-30T02:40:24;18.63;;;7.82;;
54307;SDS011;40208;39.778;2.710;2024-01-30T02:43:09;14.80;;;7.03;;
54307;SDS011;40208;39.778;2.710;2024-01-30T02:45:53;18.95;;;9.02;;
54307;SDS011;40208;39.778;2.710;2024-01-30T02:48:38;13.38;;;6.63;;
54307;SDS011;40208;39.778;2.710;2024-01-30T02:51:23;11.88;;;6.90;;
54307;SDS011;40208;39.778;2.710;2024-01-30T02:54:08;14.57;;;7.60;;
54307;SDS011;40208;39.778;2.710;2024-01-30T02:56:53;14.95;;;7.15;;
54307;SDS011;40208;39.778;2.710;2024-01-30T02:59:38;16.10;;;7.07;;
54307;SDS011;40208;39.778;2.710;2024-01-30T03:02:23;14.52;;;7.10;;
54307;SDS011;40208;39.778;2.710;2024-01-30T03:05:08;14.35;;;8.50;;
54307;SDS011;40208;39.778;2.710;2024-01-30T03:07:52;12.00;;;7.38;;
54307;SDS011;40208;39.778;2.710;2024-01-30T03:10:37;18.90;;;7.22;;
54307;SDS011;40208;39.778;2.710;2024-01-30T03:13:22;11.50;;;6.15;;
54307;SDS011;40208;39.778;2.710;2024-01-30T03:16:09;11.95;;;5.90;;
54307;SDS011;40208;39.778;2.710;2024-01-30T03:18:54;14.77;;;6.00;;
54307;SDS011;40208;39.778;2.710;2024-01-30T03:21:38;13.98;;;5.22;;
54307;SDS011;40208;39.778;2.710;2024-01-30T03:24:23;9.60;;;5.18;;
54307;SDS011;40208;39.778;2.710;2024-01-30T03:27:08;9.85;;;5.10;;
54307;SDS011;40208;39.778;2.710;2024-01-30T03:29:53;14.32;;;5.32;;
54307;SDS011;40208;39.778;2.710;2024-01-30T03:32:38;9.95;;;4.68;;
54307;SDS011;40208;39.778;2.710;2024-01-30T03:35:23;11.18;;;4.70;;
54307;SDS011;40208;39.778;2.710;2024-01-30T03:38:08;7.28;;;4.57;;
54307;SDS011;40208;39.778;2.710;2024-01-30T03:40:53;11.07;;;5.32;;
54307;SDS011;40208;39.778;2.710;2024-01-30T03:43:38;9.95;;;5.22;;
54307;SDS011;40208;39.778;2.710;2024-01-30T03:46:23;16.00;;;6.03;;
54307;SDS011;40208;39.778;2.710;2024-01-30T03:49:09;13.20;;;6.13;;
54307;SDS011;40208;39.778;2.710;2024-01-30T03:51:54;12.40;;;5.85;;
54307;SDS011;40208;39.778;2.710;2024-01-30T03:54:39;11.35;;;5.15;;
54307;SDS011;40208;39.778;2.710;2024-01-30T03:57:24;10.50;;;5.47;;
54307;SDS011;40208;39.778;2.710;2024-01-30T04:00:09;10.55;;;4.93;;
54307;SDS011;40208;39.778;2.710;2024-01-30T04:02:54;9.77;;;4.97;;
54307;SDS011;40208;39.778;2.710;2024-01-30T04:05:39;9.07;;;3.88;;
54307;SDS011;40208;39.778;2.710;2024-01-30T04:08:24;13.43;;;4.18;;
54307;SDS011;40208;39.778;2.710;2024-01-30T04:11:08;9.10;;;4.68;;
54307;SDS011;40208;39.778;2.710;2024-01-30T04:13:53;11.00;;;3.78;;
54307;SDS011;40208;39.778;2.710;2024-01-30T04:16:38;8.50;;;3.80;;
54307;SDS011;40208;39.778;2.710;2024-01-30T04:19:23;9.40;;;4.45;;
54307;SDS011;40208;39.778;2.710;2024-01-30T04:22:08;11.02;;;4.05;;
54307;SDS011;40208;39.778;2.710;2024-01-30T04:24:53;12.43;;;4.63;;
54307;SDS011;40208;39.778;2.710;2024-01-30T04:27:38;8.85;;;4.60;;
54307;SDS011;40208;39.778;2.710;2024-01-30T04:30:23;9.13;;;4.88;;
54307;SDS011;40208;39.778;2.710;2024-01-30T04:33:07;10.13;;;5.63;;
54307;SDS011;40208;39.778;2.710;2024-01-30T04:35:52;10.98;;;4.53;;
54307;SDS011;40208;39.778;2.710;2024-01-30T04:38:37;12.77;;;4.40;;
54307;SDS011;40208;39.778;2.710;2024-01-30T04:41:23;8.48;;;4.72;;
54307;SDS011;40208;39.778;2.710;2024-01-30T04:44:08;12.38;;;4.82;;
54307;SDS011;40208;39.778;2.710;2024-01-30T04:46:53;9.85;;;4.45;;
54307;SDS011;40208;39.778;2.710;2024-01-30T04:49:40;10.98;;;4.05;;
54307;SDS011;40208;39.778;2.710;2024-01-30T04:52:25;11.88;;;4.82;;
54307;SDS011;40208;39.778;2.710;2024-01-30T04:55:10;6.95;;;3.63;;
54307;SDS011;40208;39.778;2.710;2024-01-30T04:57:55;8.95;;;3.92;;
54307;SDS011;40208;39.778;2.710;2024-01-30T05:00:40;11.77;;;3.58;;
54307;SDS011;40208;39.778;2.710;2024-01-30T05:03:25;11.60;;;4.35;;
54307;SDS011;40208;39.778;2.710;2024-01-30T05:06:09;6.60;;;3.70;;
54307;SDS011;40208;39.778;2.710;2024-01-30T05:08:55;10.57;;;4.15;;
54307;SDS011;40208;39.778;2.710;2024-01-30T05:11:40;13.52;;;3.65;;
54307;SDS011;40208;39.778;2.710;2024-01-30T05:14:25;7.57;;;3.78;;
54307;SDS011;40208;39.778;2.710;2024-01-30T05:17:10;8.00;;;3.80;;
54307;SDS011;40208;39.778;2.710;2024-01-30T05:19:57;13.38;;;3.67;;
54307;SDS011;40208;39.778;2.710;2024-01-30T05:22:41;10.05;;;4.32;;
54307;SDS011;40208;39.778;2.710;2024-01-30T05:25:29;7.10;;;3.20;;
54307;SDS011;40208;39.778;2.710;2024-01-30T05:28:14;7.35;;;3.08;;
54307;SDS011;40208;39.778;2.710;2024-01-30T05:31:00;12.25;;;3.85;;
54307;SDS011;40208;39.778;2.710;2024-01-30T05:33:44;9.18;;;3.95;;
54307;SDS011;40208;39.778;2.710;2024-01-30T05:36:29;8.02;;;3.55;;
54307;SDS011;40208;39.778;2.710;2024-01-30T05:39:14;11.43;;;3.63;;
54307;SDS011;40208;39.778;2.710;2024-01-30T05:41:59;7.55;;;3.10;;
54307;SDS011;40208;39.778;2.710;2024-01-30T05:44:44;8.40;;;3.63;;
54307;SDS011;40208;39.778;2.710;2024-01-30T05:47:29;10.75;;;3.72;;
54307;SDS011;40208;39.778;2.710;2024-01-30T05:50:14;8.32;;;3.47;;
54307;SDS011;40208;39.778;2.710;2024-01-30T05:52:59;16.20;;;3.60;;
54307;SDS011;40208;39.778;2.710;2024-01-30T05:55:44;12.13;;;3.92;;
54307;SDS011;40208;39.778;2.710;2024-01-30T05:58:29;6.88;;;3.78;;
54307;SDS011;40208;39.778;2.710;2024-01-30T06:01:13;12.25;;;4.07;;
54307;SDS011;40208;39.778;2.710;2024-01-30T06:03:58;17.77;;;8.38;;
54307;SDS011;40208;39.778;2.710;2024-01-30T06:06:43;20.55;;;8.10;;
54307;SDS011;40208;39.778;2.710;2024-01-30T06:09:28;15.70;;;8.65;;
54307;SDS011;40208;39.778;2.710;2024-01-30T06:12:13;15.00;;;7.72;;
54307;SDS011;40208;39.778;2.710;2024-01-30T06:14:58;13.80;;;6.07;;
54307;SDS011;40208;39.778;2.710;2024-01-30T06:17:42;18.35;;;8.85;;
54307;SDS011;40208;39.778;2.710;2024-01-30T06:20:27;18.40;;;8.70;;
54307;SDS011;40208;39.778;2.710;2024-01-30T06:23:12;17.02;;;7.90;;
54307;SDS011;40208;39.778;2.710;2024-01-30T06:25:58;16.38;;;8.55;;
54307;SDS011;40208;39.778;2.710;2024-01-30T06:28:43;17.85;;;8.32;;
54307;SDS011;40208;39.778;2.710;2024-01-30T06:31:28;18.23;;;8.63;;
54307;SDS011;40208;39.778;2.710;2024-01-30T06:34:13;20.15;;;8.95;;
54307;SDS011;40208;39.778;2.710;2024-01-30T06:36:58;21.67;;;9.95;;
54307;SDS011;40208;39.778;2.710;2024-01-30T06:39:43;21.52;;;9.07;;
54307;SDS011;40208;39.778;2.710;2024-01-30T06:42:28;22.42;;;9.20;;
54307;SDS011;40208;39.778;2.710;2024-01-30T06:45:13;16.50;;;6.45;;
54307;SDS011;40208;39.778;2.710;2024-01-30T06:47:58;9.23;;;4.28;;
54307;SDS011;40208;39.778;2.710;2024-01-30T06:50:42;11.57;;;6.30;;
54307;SDS011;40208;39.778;2.710;2024-01-30T06:53:27;11.80;;;5.28;;
54307;SDS011;40208;39.778;2.710;2024-01-30T06:56:12;11.52;;;4.65;;
54307;SDS011;40208;39.778;2.710;2024-01-30T06:58:57;11.77;;;4.38;;
54307;SDS011;40208;39.778;2.710;2024-01-30T07:01:43;14.80;;;4.65;;
54307;SDS011;40208;39.778;2.710;2024-01-30T07:04:28;17.73;;;7.28;;
54307;SDS011;40208;39.778;2.710;2024-01-30T07:07:13;25.33;;;8.52;;
54307;SDS011;40208;39.778;2.710;2024-01-30T07:09:59;24.88;;;9.50;;
54307;SDS011;40208;39.778;2.710;2024-01-30T07:12:44;25.33;;;9.02;;
54307;SDS011;40208;39.778;2.710;2024-01-30T07:15:29;21.55;;;8.38;;
54307;SDS011;40208;39.778;2.710;2024-01-30T07:18:13;28.65;;;9.95;;
54307;SDS011;40208;39.778;2.710;2024-01-30T07:20:59;24.30;;;9.18;;
54307;SDS011;40208;39.778;2.710;2024-01-30T07:23:44;24.23;;;9.48;;
54307;SDS011;40208;39.778;2.710;2024-01-30T07:26:29;30.55;;;11.23;;
54307;SDS011;40208;39.778;2.710;2024-01-30T07:29:14;31.67;;;12.70;;
54307;SDS011;40208;39.778;2.710;2024-01-30T07:31:59;24.08;;;10.82;;
54307;SDS011;40208;39.778;2.710;2024-01-30T07:34:43;26.60;;;10.48;;
54307;SDS011;40208;39.778;2.710;2024-01-30T07:37:28;29.30;;;11.73;;
54307;SDS011;40208;39.778;2.710;2024-01-30T07:40:13;26.70;;;12.77;;
54307;SDS011;40208;39.778;2.710;2024-01-30T07:42:58;27.33;;;11.52;;
54307;SDS011;40208;39.778;2.710;2024-01-30T07:45:42;26.67;;;11.27;;
54307;SDS011;40208;39.778;2.710;2024-01-30T07:48:27;29.42;;;11.20;;
54307;SDS011;40208;39.778;2.710;2024-01-30T07:51:12;33.08;;;12.00;;
54307;SDS011;40208;39.778;2.710;2024-01-30T07:53:57;29.65;;;14.55;;
54307;SDS011;40208;39.778;2.710;2024-01-30T07:56:42;33.22;;;14.13;;
54307;SDS011;40208;39.778;2.710;2024-01-30T07:59:27;22.48;;;12.25;;
54307;SDS011;40208;39.778;2.710;2024-01-30T08:02:12;31.05;;;13.60;;
54307;SDS011;40208;39.778;2.710;2024-01-30T08:05:03;30.02;;;13.30;;
54307;SDS011;40208;39.778;2.710;2024-01-30T08:07:48;28.05;;;15.05;;
54307;SDS011;40208;39.778;2.710;2024-01-30T08:10:33;30.20;;;15.85;;
54307;SDS011;40208;39.778;2.710;2024-01-30T08:13:17;27.88;;;15.30;;
54307;SDS011;40208;39.778;2.710;2024-01-30T08:16:02;34.38;;;16.70;;
54307;SDS011;40208;39.778;2.710;2024-01-30T08:18:47;34.17;;;15.85;;
54307;SDS011;40208;39.778;2.710;2024-01-30T08:21:32;34.75;;;14.68;;
54307;SDS011;40208;39.778;2.710;2024-01-30T08:24:20;30.25;;;15.88;;
54307;SDS011;40208;39.778;2.710;2024-01-30T08:27:06;33.17;;;13.98;;
54307;SDS011;40208;39.778;2.710;2024-01-30T08:29:50;24.98;;;14.23;;
54307;SDS011;40208;39.778;2.710;2024-01-30T08:32:35;32.47;;;14.60;;
54307;SDS011;40208;39.778;2.710;2024-01-30T08:35:20;35.33;;;15.35;;
54307;SDS011;40208;39.778;2.710;2024-01-30T08:38:05;36.45;;;18.98;;
54307;SDS011;40208;39.778;2.710;2024-01-30T08:40:50;38.70;;;19.48;;
54307;SDS011;40208;39.778;2.710;2024-01-30T08:43:35;49.22;;;24.63;;
54307;SDS011;40208;39.778;2.710;2024-01-30T08:46:20;49.40;;;24.90;;
54307;SDS011;40208;39.778;2.710;2024-01-30T08:49:05;53.00;;;19.17;;
54307;SDS011;40208;39.778;2.710;2024-01-30T08:51:50;40.35;;;18.38;;
54307;SDS011;40208;39.778;2.710;2024-01-30T08:54:35;38.28;;;17.15;;
54307;SDS011;40208;39.778;2.710;2024-01-30T08:57:20;35.35;;;17.00;;
54307;SDS011;40208;39.778;2.710;2024-01-30T09:00:05;40.83;;;18.25;;
54307;SDS011;40208;39.778;2.710;2024-01-30T09:02:50;32.83;;;17.08;;
54307;SDS011;40208;39.778;2.710;2024-01-30T09:05:35;41.13;;;17.40;;
54307;SDS011;40208;39.778;2.710;2024-01-30T09:08:20;44.80;;;18.67;;
54307;SDS011;40208;39.778;2.710;2024-01-30T09:11:12;38.25;;;18.90;;
54307;SDS011;40208;39.778;2.710;2024-01-30T09:13:58;40.72;;;20.05;;
54307;SDS011;40208;39.778;2.710;2024-01-30T09:16:43;45.22;;;19.17;;
54307;SDS011;40208;39.778;2.710;2024-01-30T09:19:28;41.95;;;19.38;;
54307;SDS011;40208;39.778;2.710;2024-01-30T09:22:13;50.60;;;20.58;;
54307;SDS011;40208;39.778;2.710;2024-01-30T09:24:58;38.58;;;19.67;;
54307;SDS011;40208;39.778;2.710;2024-01-30T09:27:43;48.42;;;21.20;;
54307;SDS011;40208;39.778;2.710;2024-01-30T09:30:28;57.75;;;23.42;;
54307;SDS011;40208;39.778;2.710;2024-01-30T09:33:13;48.92;;;21.35;;
54307;SDS011;40208;39.778;2.710;2024-01-30T09:35:58;44.80;;;21.27;;
54307;SDS011;40208;39.778;2.710;2024-01-30T09:38:42;43.63;;;19.85;;
54307;SDS011;40208;39.778;2.710;2024-01-30T09:41:27;45.67;;;20.08;;
54307;SDS011;40208;39.778;2.710;2024-01-30T09:44:16;54.63;;;21.30;;
54307;SDS011;40208;39.778;2.710;2024-01-30T09:47:01;49.38;;;24.30;;
54307;SDS011;40208;39.778;2.710;2024-01-30T09:49:50;54.90;;;28.17;;
54307;SDS011;40208;39.778;2.710;2024-01-30T09:52:35;59.30;;;28.92;;
54307;SDS011;40208;39.778;2.710;2024-01-30T09:55:21;65.07;;;33.05;;
54307;SDS011;40208;39.778;2.710;2024-01-30T09:58:07;65.78;;;32.80;;
54307;SDS011;40208;39.778;2.710;2024-01-30T10:00:52;114.63;;;52.10;;
54307;SDS011;40208;39.778;2.710;2024-01-30T10:03:38;126.82;;;61.67;;
54307;SDS011;40208;39.778;2.710;2024-01-30T10:06:24;96.55;;;43.25;;
54307;SDS011;40208;39.778;2.710;2024-01-30T10:09:09;57.90;;;29.40;;
54307;SDS011;40208;39.778;2.710;2024-01-30T10:11:54;64.00;;;31.15;;
54307;SDS011;40208;39.778;2.710;2024-01-30T10:14:39;66.90;;;32.08;;
54307;SDS011;40208;39.778;2.710;2024-01-30T10:17:25;60.22;;;32.10;;
54307;SDS011;40208;39.778;2.710;2024-01-30T10:20:11;62.20;;;29.85;;
54307;SDS011;40208;39.778;2.710;2024-01-30T10:22:56;65.70;;;34.97;;
54307;SDS011;40208;39.778;2.710;2024-01-30T10:25:41;73.38;;;35.15;;
54307;SDS011;40208;39.778;2.710;2024-01-30T10:28:29;70.85;;;38.90;;
54307;SDS011;40208;39.778;2.710;2024-01-30T10:31:17;72.28;;;38.80;;
54307;SDS011;40208;39.778;2.710;2024-01-30T10:34:03;63.42;;;36.05;;
54307;SDS011;40208;39.778;2.710;2024-01-30T10:36:47;61.97;;;29.70;;
54307;SDS011;40208;39.778;2.710;2024-01-30T10:39:37;52.15;;;28.25;;
54307;SDS011;40208;39.778;2.710;2024-01-30T10:42:25;54.72;;;25.40;;
54307;SDS011;40208;39.778;2.710;2024-01-30T10:45:12;46.53;;;21.95;;
54307;SDS011;40208;39.778;2.710;2024-01-30T10:47:58;59.83;;;20.95;;
54307;SDS011;40208;39.778;2.710;2024-01-30T10:50:44;42.13;;;17.63;;
54307;SDS011;40208;39.778;2.710;2024-01-30T10:53:29;39.67;;;16.58;;
54307;SDS011;40208;39.778;2.710;2024-01-30T10:56:16;30.92;;;10.73;;
54307;SDS011;40208;39.778;2.710;2024-01-30T10:59:01;34.85;;;13.02;;
54307;SDS011;40208;39.778;2.710;2024-01-30T11:01:46;41.47;;;11.98;;
54307;SDS011;40208;39.778;2.710;2024-01-30T11:04:37;35.45;;;12.00;;
54307;SDS011;40208;39.778;2.710;2024-01-30T11:07:26;63.45;;;24.75;;
54307;SDS011;40208;39.778;2.710;2024-01-30T11:10:12;67.30;;;25.80;;
54307;SDS011;40208;39.778;2.710;2024-01-30T11:12:59;61.22;;;33.20;;
54307;SDS011;40208;39.778;2.710;2024-01-30T11:15:54;86.88;;;40.97;;
54307;SDS011;40208;39.778;2.710;2024-01-30T11:18:39;116.22;;;54.60;;
54307;SDS011;40208;39.778;2.710;2024-01-30T11:21:25;97.85;;;49.30;;
54307;SDS011;40208;39.778;2.710;2024-01-30T11:24:09;66.85;;;31.75;;
54307;SDS011;40208;39.778;2.710;2024-01-30T11:26:56;39.72;;;19.02;;
54307;SDS011;40208;39.778;2.710;2024-01-30T11:29:49;32.80;;;13.50;;
54307;SDS011;40208;39.778;2.710;2024-01-30T11:32:34;46.03;;;16.00;;
54307;SDS011;40208;39.778;2.710;2024-01-30T11:35:19;43.83;;;18.13;;
54307;SDS011;40208;39.778;2.710;2024-01-30T11:38:04;40.47;;;15.68;;
54307;SDS011;40208;39.778;2.710;2024-01-30T11:40:50;33.33;;;13.63;;
54307;SDS011;40208;39.778;2.710;2024-01-30T11:43:37;36.83;;;14.38;;
54307;SDS011;40208;39.778;2.710;2024-01-30T11:46:24;31.48;;;12.15;;
54307;SDS011;40208;39.778;2.710;2024-01-30T11:49:09;29.25;;;11.57;;
54307;SDS011;40208;39.778;2.710;2024-01-30T11:51:54;31.20;;;12.25;;
54307;SDS011;40208;39.778;2.710;2024-01-30T11:54:39;39.90;;;14.10;;
54307;SDS011;40208;39.778;2.710;2024-01-30T11:57:26;31.33;;;13.32;;
54307;SDS011;40208;39.778;2.710;2024-01-30T12:00:14;29.02;;;11.15;;
54307;SDS011;40208;39.778;2.710;2024-01-30T12:03:00;26.15;;;9.50;;
54307;SDS011;40208;39.778;2.710;2024-01-30T12:05:46;28.90;;;8.98;;
54307;SDS011;40208;39.778;2.710;2024-01-30T12:08:30;27.50;;;8.57;;
54307;SDS011;40208;39.778;2.710;2024-01-30T12:11:15;24.60;;;8.63;;
54307;SDS011;40208;39.778;2.710;2024-01-30T12:14:00;34.70;;;12.07;;
54307;SDS011;40208;39.778;2.710;2024-01-30T12:16:48;27.48;;;9.05;;
54307;SDS011;40208;39.778;2.710;2024-01-30T12:19:34;33.95;;;11.73;;
54307;SDS011;40208;39.778;2.710;2024-01-30T12:22:19;32.38;;;10.57;;
54307;SDS011;40208;39.778;2.710;2024-01-30T12:25:04;31.73;;;14.48;;
54307;SDS011;40208;39.778;2.710;2024-01-30T12:27:52;28.98;;;12.68;;
54307;SDS011;40208;39.778;2.710;2024-01-30T12:30:38;31.52;;;11.57;;
54307;SDS011;40208;39.778;2.710;2024-01-30T12:33:26;22.65;;;8.90;;
54307;SDS011;40208;39.778;2.710;2024-01-30T12:36:11;30.27;;;9.63;;
54307;SDS011;40208;39.778;2.710;2024-01-30T12:38:56;32.22;;;8.90;;
54307;SDS011;40208;39.778;2.710;2024-01-30T12:41:41;33.28;;;8.70;;
54307;SDS011;40208;39.778;2.710;2024-01-30T12:44:26;26.05;;;7.38;;
54307;SDS011;40208;39.778;2.710;2024-01-30T12:47:10;28.70;;;8.57;;
54307;SDS011;40208;39.778;2.710;2024-01-30T12:49:55;21.13;;;8.75;;
54307;SDS011;40208;39.778;2.710;2024-01-30T12:52:40;20.33;;;8.13;;
54307;SDS011;40208;39.778;2.710;2024-01-30T12:55:26;24.80;;;8.00;;
54307;SDS011;40208;39.778;2.710;2024-01-30T12:58:12;21.75;;;7.80;;
54307;SDS011;40208;39.778;2.710;2024-01-30T13:00:57;20.98;;;7.95;;
54307;SDS011;40208;39.778;2.710;2024-01-30T13:03:43;22.45;;;7.82;;
54307;SDS011;40208;39.778;2.710;2024-01-30T13:06:27;27.90;;;6.63;;
54307;SDS011;40208;39.778;2.710;2024-01-30T13:09:12;23.63;;;6.70;;
54307;SDS011;40208;39.778;2.710;2024-01-30T13:11:58;31.33;;;11.38;;
54307;SDS011;40208;39.778;2.710;2024-01-30T13:14:43;61.40;;;29.10;;
54307;SDS011;40208;39.778;2.710;2024-01-30T13:17:27;39.30;;;14.23;;
54307;SDS011;40208;39.778;2.710;2024-01-30T13:20:13;27.92;;;9.80;;
54307;SDS011;40208;39.778;2.710;2024-01-30T13:23:01;26.30;;;9.68;;
54307;SDS011;40208;39.778;2.710;2024-01-30T13:25:46;29.00;;;11.25;;
54307;SDS011;40208;39.778;2.710;2024-01-30T13:28:31;34.17;;;11.18;;
54307;SDS011;40208;39.778;2.710;2024-01-30T13:31:15;28.17;;;10.13;;
54307;SDS011;40208;39.778;2.710;2024-01-30T13:34:00;25.92;;;10.52;;
54307;SDS011;40208;39.778;2.710;2024-01-30T13:36:45;21.95;;;9.27;;
54307;SDS011;40208;39.778;2.710;2024-01-30T13:39:30;29.75;;;8.95;;
54307;SDS011;40208;39.778;2.710;2024-01-30T13:42:16;33.45;;;10.13;;
54307;SDS011;40208;39.778;2.710;2024-01-30T13:45:01;24.58;;;9.95;;
54307;SDS011;40208;39.778;2.710;2024-01-30T13:47:46;29.58;;;10.77;;
54307;SDS011;40208;39.778;2.710;2024-01-30T13:50:31;23.05;;;10.43;;
54307;SDS011;40208;39.778;2.710;2024-01-30T13:53:17;27.42;;;10.73;;
54307;SDS011;40208;39.778;2.710;2024-01-30T13:56:02;27.55;;;10.63;;
54307;SDS011;40208;39.778;2.710;2024-01-30T13:58:50;33.47;;;11.52;;
54307;SDS011;40208;39.778;2.710;2024-01-30T14:01:35;27.98;;;10.32;;
54307;SDS011;40208;39.778;2.710;2024-01-30T14:04:19;32.63;;;9.43;;
54307;SDS011;40208;39.778;2.710;2024-01-30T14:07:04;26.23;;;9.20;;
54307;SDS011;40208;39.778;2.710;2024-01-30T14:09:50;29.38;;;9.43;;
54307;SDS011;40208;39.778;2.710;2024-01-30T14:12:35;20.63;;;8.20;;
54307;SDS011;40208;39.778;2.710;2024-01-30T14:15:20;20.02;;;7.72;;
54307;SDS011;40208;39.778;2.710;2024-01-30T14:18:06;27.08;;;8.13;;
54307;SDS011;40208;39.778;2.710;2024-01-30T14:20:52;19.25;;;6.68;;
54307;SDS011;40208;39.778;2.710;2024-01-30T14:23:38;20.90;;;7.35;;
54307;SDS011;40208;39.778;2.710;2024-01-30T14:26:23;20.40;;;8.27;;
54307;SDS011;40208;39.778;2.710;2024-01-30T14:29:08;25.17;;;6.68;;
54307;SDS011;40208;39.778;2.710;2024-01-30T14:31:53;25.13;;;8.40;;
54307;SDS011;40208;39.778;2.710;2024-01-30T14:34:39;26.55;;;7.63;;
54307;SDS011;40208;39.778;2.710;2024-01-30T14:37:24;21.40;;;8.23;;
54307;SDS011;40208;39.778;2.710;2024-01-30T14:40:09;15.25;;;6.65;;
54307;SDS011;40208;39.778;2.710;2024-01-30T14:42:54;22.83;;;7.68;;
54307;SDS011;40208;39.778;2.710;2024-01-30T14:45:39;28.98;;;8.05;;
54307;SDS011;40208;39.778;2.710;2024-01-30T14:48:24;20.05;;;7.78;;
54307;SDS011;40208;39.778;2.710;2024-01-30T14:51:08;17.10;;;7.35;;
54307;SDS011;40208;39.778;2.710;2024-01-30T14:53:53;17.40;;;7.90;;
54307;SDS011;40208;39.778;2.710;2024-01-30T14:56:38;15.00;;;6.38;;
54307;SDS011;40208;39.778;2.710;2024-01-30T14:59:24;18.52;;;7.55;;
54307;SDS011;40208;39.778;2.710;2024-01-30T15:02:09;21.83;;;8.82;;
54307;SDS011;40208;39.778;2.710;2024-01-30T15:04:54;19.33;;;7.80;;
54307;SDS011;40208;39.778;2.710;2024-01-30T15:07:39;26.17;;;8.88;;
54307;SDS011;40208;39.778;2.710;2024-01-30T15:10:24;19.40;;;6.57;;
54307;SDS011;40208;39.778;2.710;2024-01-30T15:13:09;16.83;;;5.68;;
54307;SDS011;40208;39.778;2.710;2024-01-30T15:15:55;21.10;;;6.72;;
54307;SDS011;40208;39.778;2.710;2024-01-30T15:18:40;15.57;;;4.93;;
54307;SDS011;40208;39.778;2.710;2024-01-30T15:21:25;15.77;;;5.18;;
54307;SDS011;40208;39.778;2.710;2024-01-30T15:24:10;20.17;;;5.43;;
54307;SDS011;40208;39.778;2.710;2024-01-30T15:26:58;21.77;;;6.78;;
54307;SDS011;40208;39.778;2.710;2024-01-30T15:29:43;11.43;;;5.53;;
54307;SDS011;40208;39.778;2.710;2024-01-30T15:32:28;15.65;;;5.40;;
54307;SDS011;40208;39.778;2.710;2024-01-30T15:35:14;18.58;;;5.72;;
54307;SDS011;40208;39.778;2.710;2024-01-30T15:37:58;19.58;;;5.57;;
54307;SDS011;40208;39.778;2.710;2024-01-30T15:40:43;17.17;;;5.05;;
54307;SDS011;40208;39.778;2.710;2024-01-30T15:43:28;15.90;;;5.43;;
54307;SDS011;40208;39.778;2.710;2024-01-30T15:46:13;15.73;;;5.60;;
54307;SDS011;40208;39.778;2.710;2024-01-30T15:48:58;18.02;;;6.25;;
54307;SDS011;40208;39.778;2.710;2024-01-30T15:51:44;13.45;;;5.35;;
54307;SDS011;40208;39.778;2.710;2024-01-30T15:54:29;19.33;;;5.55;;
54307;SDS011;40208;39.778;2.710;2024-01-30T15:57:14;18.60;;;6.03;;
54307;SDS011;40208;39.778;2.710;2024-01-30T15:59:59;15.85;;;6.55;;
54307;SDS011;40208;39.778;2.710;2024-01-30T16:02:44;12.48;;;4.93;;
54307;SDS011;40208;39.778;2.710;2024-01-30T16:05:28;22.48;;;5.97;;
54307;SDS011;40208;39.778;2.710;2024-01-30T16:08:13;36.55;;;8.80;;
54307;SDS011;40208;39.778;2.710;2024-01-30T16:10:58;29.75;;;9.27;;
54307;SDS011;40208;39.778;2.710;2024-01-30T16:13:42;21.35;;;6.13;;
54307;SDS011;40208;39.778;2.710;2024-01-30T16:16:27;22.92;;;6.72;;